Observation data for Turkey on 12/07/2019      Previous  Date       Current Mesonet Observations  Soil Data  Daily Summary Page  Observations in Plain Language
KTUR 070600Z 21005KT 04/00 A3033 RMK A01 T004400-0  RH  074%=      5-min Rain = 0
KTUR 070605Z 21006KT 04/M00 A3033 RMK A01 T00431001  RH  074%=      5-min Rain = 0
KTUR 070610Z 21006KT 04/M00 A3033 RMK A01 T00391002  RH  076%=      5-min Rain = 0
KTUR 070615Z 21005KT 04/M00 A3033 RMK A01 T00361001  RH  078%=      5-min Rain = 0
KTUR 070620Z 21004KT 04/00 A3033 RMK A01 T004000-0  RH  076%=      5-min Rain = 0
KTUR 070625Z 21005KT 04/M00 A3033 RMK A01 T00441001  RH  074%=      5-min Rain = 0
KTUR 070630Z 21006KT 04/M00 A3033 RMK A01 T00401003  RH  075%=      5-min Rain = 0
KTUR 070635Z 21005KT 04/M00 A3033 RMK A01 T00381002  RH  076%=      5-min Rain = 0
KTUR 070640Z 22005KT 04/M00 A3033 RMK A01 T00411001  RH  075%=      5-min Rain = 0
KTUR 070645Z 22006KT 04/M00 A3033 RMK A01 T00401002  RH  075%=      5-min Rain = 0
KTUR 070650Z 22006KT 04/M00 A3033 RMK A01 T00361003  RH  077%=      5-min Rain = 0
KTUR 070655Z 22005KT 04/M00 A3033 RMK A01 T00371002  RH  076%=      5-min Rain = 0
KTUR 070700Z 22006KT 04/M00 A3033 RMK A01 T00411001  RH  075%=      5-min Rain = 0
KTUR 070705Z 22007KT 04/M00 A3033 RMK A01 T00381002  RH  076%=      5-min Rain = 0
KTUR 070710Z 21006KT 04/M00 A3032 RMK A01 T00351002  RH  077%=      5-min Rain = 0
KTUR 070715Z 21005KT 04/M00 A3032 RMK A01 T00371002  RH  076%=      5-min Rain = 0
KTUR 070720Z 20005KT 04/M00 A3032 RMK A01 T00411002  RH  075%=      5-min Rain = 0
KTUR 070725Z 20006KT 04/M00 A3032 RMK A01 T00431002  RH  073%=      5-min Rain = 0
KTUR 070730Z 20005KT 04/M00 A3032 RMK A01 T00411003  RH  074%=      5-min Rain = 0
KTUR 070735Z 20005KT 04/M00 A3032 RMK A01 T00411003  RH  074%=      5-min Rain = 0
KTUR 070740Z 20006KT 04/M00 A3031 RMK A01 T00411003  RH  074%=      5-min Rain = 0
KTUR 070745Z 20006KT 04/M00 A3031 RMK A01 T00391003  RH  075%=      5-min Rain = 0
KTUR 070750Z 20006KT 04/M00 A3031 RMK A01 T00381003  RH  075%=      5-min Rain = 0
KTUR 070755Z 20005KT 04/M00 A3032 RMK A01 T00351004  RH  077%=      5-min Rain = 0
KTUR 070800Z 20005KT 03/M00 A3032 RMK A01 T00331004  RH  077%=      5-min Rain = 0
KTUR 070805Z 20005KT 03/M00 A3031 RMK A01 T00331004  RH  078%=      5-min Rain = 0
KTUR 070810Z 20005KT 03/M00 A3032 RMK A01 T00341004  RH  077%=      5-min Rain = 0
KTUR 070815Z 20005KT 03/M00 A3032 RMK A01 T00331004  RH  077%=      5-min Rain = 0
KTUR 070820Z 20005KT 03/M00 A3032 RMK A01 T00321004  RH  078%=      5-min Rain = 0
KTUR 070825Z 20004KT 03/M00 A3031 RMK A01 T00331004  RH  078%=      5-min Rain = 0
KTUR 070830Z 20003KT 03/M00 A3031 RMK A01 T00331004  RH  078%=      5-min Rain = 0
KTUR 070835Z 20003KT 04/M00 A3031 RMK A01 T00351003  RH  077%=      5-min Rain = 0
KTUR 070840Z 20004KT 04/M00 A3031 RMK A01 T00381003  RH  075%=      5-min Rain = 0
KTUR 070845Z 20004KT 04/M00 A3031 RMK A01 T00381003  RH  075%=      5-min Rain = 0
KTUR 070850Z 20004KT 04/M00 A3031 RMK A01 T00361004  RH  076%=      5-min Rain = 0
KTUR 070855Z 20004KT 03/M01 A3031 RMK A01 T00331005  RH  077%=      5-min Rain = 0
KTUR 070900Z 20005KT 03/M01 A3031 RMK A01 T00321005  RH  078%=      5-min Rain = 0
KTUR 070905Z 20005KT 03/M01 A3031 RMK A01 T00271007  RH  079%=      5-min Rain = 0
KTUR 070910Z 20006KT 02/M01 A3031 RMK A01 T00211008  RH  082%=      5-min Rain = 0
KTUR 070915Z 20006KT 02/M01 A3031 RMK A01 T00191008  RH  083%=      5-min Rain = 0
KTUR 070920Z 21006KT 02/M01 A3031 RMK A01 T00191007  RH  084%=      5-min Rain = 0
KTUR 070925Z 21006KT 02/M01 A3031 RMK A01 T00231006  RH  082%=      5-min Rain = 0
KTUR 070930Z 21007KT 02/M01 A3031 RMK A01 T00221008  RH  082%=      5-min Rain = 0
KTUR 070935Z 20007KT 02/M01 A3031 RMK A01 T00191007  RH  084%=      5-min Rain = 0
KTUR 070940Z 20007KT 02/M01 A3031 RMK A01 T00201006  RH  084%=      5-min Rain = 0
KTUR 070945Z 20006KT 02/M01 A3031 RMK A01 T00201006  RH  084%=      5-min Rain = 0
KTUR 070950Z 20005KT 02/M01 A3031 RMK A01 T00231005  RH  083%=      5-min Rain = 0
KTUR 070955Z 20004KT 03/M00 A3031 RMK A01 T00261004  RH  081%=      5-min Rain = 0
KTUR 071000Z 19004KT 03/M00 A303 RMK A01 T00301004  RH  079%=      5-min Rain = 0
KTUR 071005Z 19004KT 03/M01 A303 RMK A01 T00281006  RH  079%=      5-min Rain = 0
KTUR 071010Z 19004KT 03/M01 A303 RMK A01 T00271005  RH  080%=      5-min Rain = 0
KTUR 071015Z 18004KT 03/M00 A303 RMK A01 T00311004  RH  079%=      5-min Rain = 0
KTUR 071020Z 18004KT 03/M00 A303 RMK A01 T00331003  RH  078%=      5-min Rain = 0
KTUR 071025Z 18005KT 03/M00 A303 RMK A01 T00331004  RH  078%=      5-min Rain = 0
KTUR 071030Z 18004KT 03/M00 A3029 RMK A01 T00341003  RH  078%=      5-min Rain = 0
KTUR 071035Z 18004KT 04/M00 A3029 RMK A01 T00351003  RH  077%=      5-min Rain = 0
KTUR 071040Z 18004KT 03/M00 A3029 RMK A01 T00331004  RH  078%=      5-min Rain = 0
KTUR 071045Z 19004KT 03/M00 A3029 RMK A01 T00311004  RH  078%=      5-min Rain = 0
KTUR 071050Z 20004KT 03/M01 A3029 RMK A01 T00271006  RH  080%=      5-min Rain = 0
KTUR 071055Z 20003KT 03/M01 A3029 RMK A01 T00251005  RH  081%=      5-min Rain = 0
KTUR 071100Z 21003KT 02/M01 A3029 RMK A01 T00231008  RH  081%=      5-min Rain = 0
KTUR 071105Z 21001KT 02/M01 A3029 RMK A01 T00191009  RH  083%=      5-min Rain = 0
KTUR 071110Z 20002KT 02/M01 A3029 RMK A01 T00181007  RH  084%=      5-min Rain = 0
KTUR 071115Z 21003KT 02/M01 A3029 RMK A01 T00211006  RH  083%=      5-min Rain = 0
KTUR 071120Z 21003KT 02/M01 A3029 RMK A01 T00221006  RH  083%=      5-min Rain = 0
KTUR 071125Z 21003KT 02/M01 A3029 RMK A01 T00211007  RH  083%=      5-min Rain = 0
KTUR 071130Z 21003KT 02/M01 A3029 RMK A01 T00211006  RH  083%=      5-min Rain = 0
KTUR 071135Z 20003KT 02/M01 A3029 RMK A01 T00181008  RH  084%=      5-min Rain = 0
KTUR 071140Z 21004KT 02/M01 A3029 RMK A01 T00171008  RH  085%=      5-min Rain = 0
KTUR 071145Z 21005KT 02/M01 A3029 RMK A01 T00171007  RH  085%=      5-min Rain = 0
KTUR 071150Z 21005KT 02/M01 A3028 RMK A01 T00161009  RH  084%=      5-min Rain = 0
KTUR 071155Z 21005KT 02/M01 A3028 RMK A01 T00161008  RH  085%=      5-min Rain = 0
KTUR 071200Z 21004KT 02/M01 A3028 RMK A01 T00161009  RH  085%=      5-min Rain = 0
KTUR 071205Z 21004KT 02/M01 A3028 RMK A01 T00171008  RH  085%=      5-min Rain = 0
KTUR 071210Z 23002KT 02/M01 A3028 RMK A01 T00161011  RH  083%=      5-min Rain = 0
KTUR 071215Z 26001KT 01/M01 A3028 RMK A01 T00101013  RH  086%=      5-min Rain = 0
KTUR 071220Z 02001KT 01/M01 A3028 RMK A01 T00121010  RH  086%=      5-min Rain = 0
KTUR 071225Z 22001KT 01/M01 A3028 RMK A01 T00141008  RH  086%=      5-min Rain = 0
KTUR 071230Z 21002KT 02/M01 A3028 RMK A01 T00161007  RH  086%=      5-min Rain = 0
KTUR 071235Z 20003KT 02/M01 A3028 RMK A01 T00151009  RH  085%=      5-min Rain = 0
KTUR 071240Z 19003KT 01/M01 A3028 RMK A01 T00131011  RH  085%=      5-min Rain = 0
KTUR 071245Z 18003KT 01/M01 A3028 RMK A01 T00101011  RH  087%=      5-min Rain = 0
KTUR 071250Z 18002KT 01/M01 A3028 RMK A01 T00091012  RH  087%=      5-min Rain = 0
KTUR 071255Z 18002KT 01/M01 A3028 RMK A01 T00071014  RH  087%=      5-min Rain = 0
KTUR 071300Z 18002KT 01/M01 A3028 RMK A01 T00051014  RH  088%=      5-min Rain = 0
KTUR 071305Z 19002KT 01/M01 A3028 RMK A01 T00051014  RH  088%=      5-min Rain = 0
KTUR 071310Z 19004KT 01/M01 A3028 RMK A01 T00071012  RH  088%=      5-min Rain = 0
KTUR 071315Z 19004KT 01/M01 A3029 RMK A01 T00061013  RH  088%=      5-min Rain = 0
KTUR 071320Z 19003KT 00/M01 A3028 RMK A01 T00041014  RH  089%=      5-min Rain = 0
KTUR 071325Z 19002KT 00/M01 A3028 RMK A01 T00031014  RH  089%=      5-min Rain = 0
KTUR 071330Z 19002KT 00/M01 A3028 RMK A01 T00031013  RH  090%=      5-min Rain = 0
KTUR 071335Z 18002KT 00/M01 A3028 RMK A01 T00041012  RH  090%=      5-min Rain = 0
KTUR 071340Z 18002KT 01/M01 A3028 RMK A01 T00051012  RH  089%=      5-min Rain = 0
KTUR 071345Z 18002KT 01/M01 A3028 RMK A01 T00051012  RH  089%=      5-min Rain = 0
KTUR 071350Z 18002KT 01/M01 A3028 RMK A01 T00051012  RH  089%=      5-min Rain = 0
KTUR 071355Z 18003KT 01/M01 A3028 RMK A01 T00051012  RH  089%=      5-min Rain = 0
KTUR 071400Z 18003KT 01/M01 A3028 RMK A01 T00051013  RH  089%=      5-min Rain = 0
KTUR 071405Z 17003KT 00/M01 A3028 RMK A01 T00031014  RH  089%=      5-min Rain = 0
KTUR 071410Z 16003KT 00/M02 A3028 RMK A01 T00021015  RH  089%=      5-min Rain = 0
KTUR 071415Z 17004KT 00/M02 A3028 RMK A01 T00011015  RH  090%=      5-min Rain = 0
KTUR 071420Z 17004KT 00/M02 A3028 RMK A01 T00011015  RH  090%=      5-min Rain = 0
KTUR 071425Z 17003KT 00/M01 A3028 RMK A01 T00031012  RH  090%=      5-min Rain = 0
KTUR 071430Z 17003KT 01/M01 A3028 RMK A01 T00051011  RH  090%=      5-min Rain = 0
KTUR 071435Z 18003KT 01/M01 A3028 RMK A01 T00071010  RH  089%=      5-min Rain = 0
KTUR 071440Z 18003KT 01/M01 A3028 RMK A01 T00111007  RH  089%=      5-min Rain = 0
KTUR 071445Z 18003KT 02/M01 A3028 RMK A01 T00151005  RH  087%=      5-min Rain = 0
KTUR 071450Z 19003KT 02/M00 A3028 RMK A01 T00181003  RH  086%=      5-min Rain = 0
KTUR 071455Z 19004KT 02/M00 A3028 RMK A01 T00221001  RH  086%=      5-min Rain = 0
KTUR 071500Z 19004KT 03/00 A3028 RMK A01 T00270004  RH  086%=      5-min Rain = 0
KTUR 071505Z 17003KT 03/01 A3028 RMK A01 T00310008  RH  086%=      5-min Rain = 0
KTUR 071510Z 16003KT 04/01 A3028 RMK A01 T00350009  RH  084%=      5-min Rain = 0
KTUR 071515Z 15004KT 04/01 A3028 RMK A01 T00400011  RH  082%=      5-min Rain = 0
KTUR 071520Z 14003KT 04/01 A3027 RMK A01 T00440011  RH  080%=      5-min Rain = 0
KTUR 071525Z 14003KT 05/01 A3027 RMK A01 T00460011  RH  079%=      5-min Rain = 0
KTUR 071530Z 15003KT 05/01 A3027 RMK A01 T00490011  RH  078%=      5-min Rain = 0
KTUR 071535Z 15003KT 05/01 A3027 RMK A01 T00510012  RH  077%=      5-min Rain = 0
KTUR 071540Z 15004KT 06/01 A3028 RMK A01 T00550013  RH  076%=      5-min Rain = 0
KTUR 071545Z 16004KT 06/01 A3028 RMK A01 T00560014  RH  075%=      5-min Rain = 0
KTUR 071550Z 15003KT 06/02 A3028 RMK A01 T00570015  RH  075%=      5-min Rain = 0
KTUR 071555Z 14004KT 06/02 A3027 RMK A01 T00580015  RH  075%=      5-min Rain = 0
KTUR 071600Z 13004KT 06/02 A3027 RMK A01 T00620016  RH  074%=      5-min Rain = 0
KTUR 071605Z 14003KT 07/02 A3027 RMK A01 T00660017  RH  072%=      5-min Rain = 0
KTUR 071610Z 14004KT 07/02 A3028 RMK A01 T00690018  RH  071%=      5-min Rain = 0
KTUR 071615Z 12004KT 07/02 A3028 RMK A01 T00710019  RH  070%=      5-min Rain = 0
KTUR 071620Z 13005KT 08/02 A3027 RMK A01 T00750020  RH  069%=      5-min Rain = 0
KTUR 071625Z 14006KT 08/02 A3027 RMK A01 T00790019  RH  066%=      5-min Rain = 0
KTUR 071630Z 14006KT 08/02 A3027 RMK A01 T00830020  RH  066%=      5-min Rain = 0
KTUR 071635Z 15006KT 09/02 A3026 RMK A01 T00850020  RH  064%=      5-min Rain = 0
KTUR 071640Z 16007KT 09/02 A3026 RMK A01 T00870020  RH  064%=      5-min Rain = 0
KTUR 071645Z 16006KT 09/02 A3026 RMK A01 T00910022  RH  063%=      5-min Rain = 0
KTUR 071650Z 16007KT 10/02 A3026 RMK A01 T00950024  RH  062%=      5-min Rain = 0
KTUR 071655Z 17008KT 10/03 A3025 RMK A01 T01040028  RH  060%=      5-min Rain = 0
KTUR 071700Z 16009KT 11/03 A3025 RMK A01 T01110028  RH  057%=      5-min Rain = 0
KTUR 071705Z 14010KT 12/03 A3025 RMK A01 T01170029  RH  056%=      5-min Rain = 0
KTUR 071710Z 15011KT 12/03 A3025 RMK A01 T01220029  RH  053%=      5-min Rain = 0
KTUR 071715Z 16011KT 13/03 A3025 RMK A01 T01250028  RH  052%=      5-min Rain = 0
KTUR 071720Z 16012KT 13/03 A3025 RMK A01 T01310028  RH  050%=      5-min Rain = 0
KTUR 071725Z 17014KT 13/02 A3024 RMK A01 T01340024  RH  048%=      5-min Rain = 0
KTUR 071730Z 17014KT 14/02 A3024 RMK A01 T01360023  RH  047%=      5-min Rain = 0
KTUR 071735Z 17011G16KT 14/03 A3023 RMK A01 T01410025  RH  046%=      5-min Rain = 0
KTUR 071740Z 17013KT 14/02 A3023 RMK A01 T01440024  RH  045%=      5-min Rain = 0
KTUR 071745Z 16012G17KT 15/02 A3022 RMK A01 T01460023  RH  044%=      5-min Rain = 0
KTUR 071750Z 15013KT 15/02 A3022 RMK A01 T01480022  RH  043%=      5-min Rain = 0
KTUR 071755Z 15013KT 15/02 A3022 RMK A01 T01510019  RH  041%=      5-min Rain = 0
KTUR 071800Z 15013G18KT 15/02 A3021 RMK A01 T01510017  RH  041%=      5-min Rain = 0
KTUR 071805Z 15014KT 15/02 A3021 RMK A01 T01530018  RH  041%=      5-min Rain = 0
KTUR 071810Z 16012KT 15/02 A3021 RMK A01 T01510018  RH  041%=      5-min Rain = 0
KTUR 071815Z 16011KT 15/02 A302 RMK A01 T01530019  RH  041%=      5-min Rain = 0
KTUR 071820Z 16011KT 16/02 A302 RMK A01 T01550020  RH  041%=      5-min Rain = 0
KTUR 071825Z 16011G16KT 15/02 A3019 RMK A01 T01520021  RH  042%=      5-min Rain = 0
KTUR 071830Z 16013KT 16/02 A3019 RMK A01 T01560023  RH  041%=      5-min Rain = 0
KTUR 071835Z 16011G17KT 16/02 A3018 RMK A01 T01580023  RH  041%=      5-min Rain = 0
KTUR 071840Z 16014KT 16/02 A3018 RMK A01 T01620022  RH  039%=      5-min Rain = 0
KTUR 071845Z 16013G18KT 17/02 A3017 RMK A01 T01650021  RH  038%=      5-min Rain = 0
KTUR 071850Z 17014G19KT 17/02 A3017 RMK A01 T01670019  RH  037%=      5-min Rain = 0
KTUR 071855Z 16012G17KT 17/02 A3016 RMK A01 T01700020  RH  037%=      5-min Rain = 0
KTUR 071900Z 17015KT 17/02 A3015 RMK A01 T01700020  RH  037%=      5-min Rain = 0
KTUR 071905Z 16015G20KT 17/02 A3015 RMK A01 T01680020  RH  037%=      5-min Rain = 0
KTUR 071910Z 17015KT 17/02 A3014 RMK A01 T01690020  RH  037%=      5-min Rain = 0
KTUR 071915Z 16015KT 17/02 A3014 RMK A01 T01700021  RH  037%=      5-min Rain = 0
KTUR 071920Z 16015KT 17/02 A3014 RMK A01 T01720022  RH  037%=      5-min Rain = 0
KTUR 071925Z 17014G20KT 17/02 A3013 RMK A01 T01720022  RH  037%=      5-min Rain = 0
KTUR 071930Z 17016G22KT 18/02 A3013 RMK A01 T01760019  RH  035%=      5-min Rain = 0
KTUR 071935Z 18017KT 18/02 A3013 RMK A01 T01750019  RH  035%=      5-min Rain = 0
KTUR 071940Z 18015KT 18/02 A3012 RMK A01 T01770020  RH  035%=      5-min Rain = 0
KTUR 071945Z 17016G23KT 18/02 A3012 RMK A01 T01760020  RH  036%=      5-min Rain = 0
KTUR 071950Z 17015G22KT 18/02 A3012 RMK A01 T01770021  RH  035%=      5-min Rain = 0
KTUR 071955Z 17015G23KT 18/02 A3011 RMK A01 T01820021  RH  035%=      5-min Rain = 0
KTUR 072000Z 18017G22KT 18/02 A3011 RMK A01 T01790017  RH  034%=      5-min Rain = 0
KTUR 072005Z 18017KT 18/02 A3011 RMK A01 T01790019  RH  034%=      5-min Rain = 0
KTUR 072010Z 19016KT 18/02 A3011 RMK A01 T01790020  RH  035%=      5-min Rain = 0
KTUR 072015Z 18017G23KT 18/02 A301 RMK A01 T01810022  RH  035%=      5-min Rain = 0
KTUR 072020Z 18018G23KT 18/02 A301 RMK A01 T01780022  RH  035%=      5-min Rain = 0
KTUR 072025Z 18017KT 18/02 A301 RMK A01 T01780023  RH  036%=      5-min Rain = 0
KTUR 072030Z 17015G20KT 18/03 A3009 RMK A01 T01800025  RH  036%=      5-min Rain = 0
KTUR 072035Z 17016KT 18/03 A3009 RMK A01 T01800025  RH  036%=      5-min Rain = 0
KTUR 072040Z 18017G23KT 18/03 A3009 RMK A01 T01800026  RH  036%=      5-min Rain = 0
KTUR 072045Z 19016G21KT 18/03 A3009 RMK A01 T01790026  RH  036%=      5-min Rain = 0
KTUR 072050Z 17017G22KT 18/03 A3009 RMK A01 T01800027  RH  037%=      5-min Rain = 0
KTUR 072055Z 18015G20KT 18/03 A3008 RMK A01 T01820029  RH  036%=      5-min Rain = 0
KTUR 072100Z 17016KT 18/03 A3008 RMK A01 T01790028  RH  037%=      5-min Rain = 0
KTUR 072105Z 17016KT 18/03 A3008 RMK A01 T01780028  RH  037%=      5-min Rain = 0
KTUR 072110Z 18015KT 18/03 A3008 RMK A01 T01790028  RH  037%=      5-min Rain = 0
KTUR 072115Z 16016G22KT 18/03 A3008 RMK A01 T01780028  RH  037%=      5-min Rain = 0
KTUR 072120Z 17015KT 18/03 A3007 RMK A01 T01790029  RH  037%=      5-min Rain = 0
KTUR 072125Z 17014G19KT 18/03 A3007 RMK A01 T01790028  RH  037%=      5-min Rain = 0
KTUR 072130Z 17015KT 18/03 A3007 RMK A01 T01800028  RH  037%=      5-min Rain = 0
KTUR 072135Z 16015KT 18/03 A3007 RMK A01 T01800029  RH  037%=      5-min Rain = 0
KTUR 072140Z 17016G22KT 18/03 A3007 RMK A01 T01790028  RH  037%=      5-min Rain = 0
KTUR 072145Z 16017KT 18/03 A3006 RMK A01 T01810028  RH  037%=      5-min Rain = 0
KTUR 072150Z 18016KT 18/03 A3006 RMK A01 T01810027  RH  036%=      5-min Rain = 0
KTUR 072155Z 17017KT 18/03 A3006 RMK A01 T01800028  RH  037%=      5-min Rain = 0
KTUR 072200Z 16017KT 18/03 A3006 RMK A01 T01800027  RH  037%=      5-min Rain = 0
KTUR 072205Z 17017G22KT 18/03 A3005 RMK A01 T01810028  RH  036%=      5-min Rain = 0
KTUR 072210Z 17018KT 18/03 A3005 RMK A01 T01790028  RH  037%=      5-min Rain = 0
KTUR 072215Z 17017KT 18/03 A3005 RMK A01 T01790028  RH  037%=      5-min Rain = 0
KTUR 072220Z 16016G22KT 18/03 A3005 RMK A01 T01780028  RH  037%=      5-min Rain = 0
KTUR 072225Z 17017KT 18/03 A3005 RMK A01 T01770028  RH  037%=      5-min Rain = 0
KTUR 072230Z 16016KT 18/03 A3005 RMK A01 T01760028  RH  038%=      5-min Rain = 0
KTUR 072235Z 17015KT 17/03 A3005 RMK A01 T01740028  RH  038%=      5-min Rain = 0
KTUR 072240Z 16016KT 17/03 A3005 RMK A01 T01700028  RH  039%=      5-min Rain = 0
KTUR 072245Z 16014G19KT 17/03 A3005 RMK A01 T01680027  RH  040%=      5-min Rain = 0
KTUR 072250Z 16014KT 17/03 A3005 RMK A01 T01670028  RH  040%=      5-min Rain = 0
KTUR 072255Z 16013KT 17/03 A3005 RMK A01 T01670028  RH  040%=      5-min Rain = 0
KTUR 072300Z 16013KT 17/03 A3005 RMK A01 T01660028  RH  040%=      5-min Rain = 0
KTUR 072305Z 16014KT 16/03 A3004 RMK A01 T01640028  RH  040%=      5-min Rain = 0
KTUR 072310Z 16013KT 16/03 A3004 RMK A01 T01620028  RH  041%=      5-min Rain = 0
KTUR 072315Z 16013KT 16/03 A3004 RMK A01 T01590027  RH  042%=      5-min Rain = 0
KTUR 072320Z 16013KT 16/03 A3004 RMK A01 T01560027  RH  042%=      5-min Rain = 0
KTUR 072325Z 16013KT 15/03 A3004 RMK A01 T01540027  RH  043%=      5-min Rain = 0
KTUR 072330Z 16012KT 15/03 A3004 RMK A01 T01500026  RH  044%=      5-min Rain = 0
KTUR 072335Z 16012KT 15/03 A3003 RMK A01 T01480026  RH  044%=      5-min Rain = 0
KTUR 072340Z 16013KT 15/03 A3003 RMK A01 T01460026  RH  045%=      5-min Rain = 0
KTUR 072345Z 16013KT 15/03 A3003 RMK A01 T01450026  RH  045%=      5-min Rain = 0
KTUR 072350Z 16013KT 14/03 A3003 RMK A01 T01410027  RH  046%=      5-min Rain = 0
KTUR 072355Z 16013KT 14/03 A3003 RMK A01 T01400027  RH  047%=      5-min Rain = 0
KTUR 080000Z 16014KT 14/03 A3003 RMK A01 T01390027  RH  047%=      5-min Rain = 0
KTUR 080005Z 16014KT 14/03 A3003 RMK A01 T01370027  RH  048%=      5-min Rain = 0
KTUR 080010Z 16014KT 14/03 A3002 RMK A01 T01380027  RH  048%=      5-min Rain = 0
KTUR 080015Z 16015KT 14/03 A3002 RMK A01 T01370027  RH  048%=      5-min Rain = 0
KTUR 080020Z 16014KT 14/03 A3002 RMK A01 T01360027  RH  048%=      5-min Rain = 0
KTUR 080025Z 16014KT 13/03 A3002 RMK A01 T01340027  RH  049%=      5-min Rain = 0
KTUR 080030Z 16014KT 13/03 A3002 RMK A01 T01320027  RH  049%=      5-min Rain = 0
KTUR 080035Z 16014KT 13/03 A3003 RMK A01 T01330028  RH  050%=      5-min Rain = 0
KTUR 080040Z 17013KT 13/03 A3003 RMK A01 T01300027  RH  050%=      5-min Rain = 0
KTUR 080045Z 17013KT 13/03 A3003 RMK A01 T01290027  RH  051%=      5-min Rain = 0
KTUR 080050Z 16013KT 13/03 A3003 RMK A01 T01280028  RH  051%=      5-min Rain = 0
KTUR 080055Z 16014KT 13/03 A3003 RMK A01 T01260028  RH  052%=      5-min Rain = 0
KTUR 080100Z 16013KT 13/03 A3003 RMK A01 T01270028  RH  052%=      5-min Rain = 0
KTUR 080105Z 16012KT 13/03 A3002 RMK A01 T01260028  RH  052%=      5-min Rain = 0
KTUR 080110Z 16012KT 12/03 A3002 RMK A01 T01240028  RH  053%=      5-min Rain = 0
KTUR 080115Z 16013KT 12/03 A3002 RMK A01 T01220028  RH  053%=      5-min Rain = 0
KTUR 080120Z 16013KT 12/03 A3002 RMK A01 T01190027  RH  054%=      5-min Rain = 0
KTUR 080125Z 16013KT 12/03 A3002 RMK A01 T01190027  RH  054%=      5-min Rain = 0
KTUR 080130Z 16013KT 12/03 A3002 RMK A01 T01180027  RH  054%=      5-min Rain = 0
KTUR 080135Z 16013KT 12/03 A3002 RMK A01 T01170027  RH  054%=      5-min Rain = 0
KTUR 080140Z 17012KT 12/03 A3002 RMK A01 T01160026  RH  055%=      5-min Rain = 0
KTUR 080145Z 17012KT 11/03 A3002 RMK A01 T01130026  RH  056%=      5-min Rain = 0
KTUR 080150Z 17012KT 11/03 A3002 RMK A01 T01110026  RH  056%=      5-min Rain = 0
KTUR 080155Z 17012KT 11/03 A3002 RMK A01 T01120026  RH  056%=      5-min Rain = 0
KTUR 080200Z 17012KT 11/03 A3002 RMK A01 T01110026  RH  056%=      5-min Rain = 0
KTUR 080205Z 16012KT 11/03 A3002 RMK A01 T01120026  RH  056%=      5-min Rain = 0
KTUR 080210Z 16011KT 11/03 A3001 RMK A01 T01110026  RH  057%=      5-min Rain = 0
KTUR 080215Z 16010KT 11/03 A3001 RMK A01 T01090026  RH  057%=      5-min Rain = 0
KTUR 080220Z 16010KT 11/03 A3001 RMK A01 T01070026  RH  058%=      5-min Rain = 0
KTUR 080225Z 15010KT 11/03 A3001 RMK A01 T01060026  RH  058%=      5-min Rain = 0
KTUR 080230Z 15010KT 11/03 A3001 RMK A01 T01050026  RH  059%=      5-min Rain = 0
KTUR 080235Z 16010KT 11/03 A30 RMK A01 T01050026  RH  059%=      5-min Rain = 0
KTUR 080240Z 16012KT 10/03 A30 RMK A01 T01030025  RH  059%=      5-min Rain = 0
KTUR 080245Z 16013KT 10/03 A30 RMK A01 T01020026  RH  060%=      5-min Rain = 0
KTUR 080250Z 16014KT 10/03 A30 RMK A01 T01010026  RH  060%=      5-min Rain = 0
KTUR 080255Z 17015KT 10/03 A2999 RMK A01 T01010026  RH  060%=      5-min Rain = 0
KTUR 080300Z 17016KT 10/03 A2999 RMK A01 T01010026  RH  060%=      5-min Rain = 0
KTUR 080305Z 17015KT 10/03 A2999 RMK A01 T01030026  RH  059%=      5-min Rain = 0
KTUR 080310Z 17016KT 11/03 A2999 RMK A01 T01060027  RH  059%=      5-min Rain = 0
KTUR 080315Z 17016KT 11/03 A2999 RMK A01 T01060027  RH  059%=      5-min Rain = 0
KTUR 080320Z 17016KT 11/03 A2999 RMK A01 T01110027  RH  057%=      5-min Rain = 0
KTUR 080325Z 17014KT 11/03 A2999 RMK A01 T01110027  RH  057%=      5-min Rain = 0
KTUR 080330Z 16013KT 11/03 A2999 RMK A01 T01120028  RH  057%=      5-min Rain = 0
KTUR 080335Z 16012KT 11/03 A2999 RMK A01 T01130028  RH  056%=      5-min Rain = 0
KTUR 080340Z 16011KT 12/03 A2999 RMK A01 T01150028  RH  056%=      5-min Rain = 0
KTUR 080345Z 16011KT 12/03 A2999 RMK A01 T01150028  RH  056%=      5-min Rain = 0
KTUR 080350Z 16009KT 11/03 A2999 RMK A01 T01140028  RH  056%=      5-min Rain = 0
KTUR 080355Z 15008KT 11/03 A2999 RMK A01 T01120027  RH  057%=      5-min Rain = 0
KTUR 080400Z 14007KT 11/03 A2999 RMK A01 T01060026  RH  058%=      5-min Rain = 0
KTUR 080405Z 12007KT 10/03 A2998 RMK A01 T00990025  RH  061%=      5-min Rain = 0
KTUR 080410Z 12008KT 10/03 A2998 RMK A01 T00950025  RH  062%=      5-min Rain = 0
KTUR 080415Z 13008KT 10/03 A2998 RMK A01 T00950025  RH  062%=      5-min Rain = 0
KTUR 080420Z 13008KT 09/02 A2998 RMK A01 T00940024  RH  062%=      5-min Rain = 0
KTUR 080425Z 14008KT 09/02 A2998 RMK A01 T00890022  RH  064%=      5-min Rain = 0
KTUR 080430Z 15008KT 09/02 A2998 RMK A01 T00890023  RH  064%=      5-min Rain = 0
KTUR 080435Z 15008KT 09/02 A2998 RMK A01 T00910024  RH  064%=      5-min Rain = 0
KTUR 080440Z 15007KT 09/03 A2998 RMK A01 T00940025  RH  063%=      5-min Rain = 0
KTUR 080445Z 15006KT 10/03 A2998 RMK A01 T00980025  RH  061%=      5-min Rain = 0
KTUR 080450Z 15005KT 09/02 A2998 RMK A01 T00940024  RH  062%=      5-min Rain = 0
KTUR 080455Z 14004KT 10/02 A2997 RMK A01 T00950024  RH  062%=      5-min Rain = 0
KTUR 080500Z 14004G11KT 10/03 A2997 RMK A01 T01000026  RH  061%=      5-min Rain = 0
KTUR 080505Z 14003KT 11/03 A2996 RMK A01 T01050026  RH  059%=      5-min Rain = 0
KTUR 080510Z 16004KT 11/03 A2996 RMK A01 T01060026  RH  059%=      5-min Rain = 0
KTUR 080515Z 18005KT 11/03 A2996 RMK A01 T01110027  RH  057%=      5-min Rain = 0
KTUR 080520Z 18007KT 11/03 A2996 RMK A01 T01090026  RH  057%=      5-min Rain = 0
KTUR 080525Z 19011KT 12/03 A2995 RMK A01 T01160029  RH  056%=      5-min Rain = 0
KTUR 080530Z 19010KT 12/03 A2995 RMK A01 T01150030  RH  056%=      5-min Rain = 0
KTUR 080535Z 19009KT 11/03 A2995 RMK A01 T01140029  RH  057%=      5-min Rain = 0
KTUR 080540Z 18008KT 11/03 A2995 RMK A01 T01110029  RH  058%=      5-min Rain = 0
KTUR 080545Z 18009G14KT 11/03 A2995 RMK A01 T01140030  RH  057%=      5-min Rain = 0
KTUR 080550Z 18007KT 11/03 A2995 RMK A01 T01120029  RH  057%=      5-min Rain = 0
KTUR 080555Z 18006KT 11/03 A2995 RMK A01 T01130029  RH  057%=      5-min Rain = 0

Page generated in 0.0278 seconds.